Time;durP1;ratioP1;P1;durP2;ratioP2;P2;SDS_P1;SDS_P2;PMS_P1;PMS_P2;Temp;Humidity;BMP_temperature;BMP_pressure;BME280_temperature;BME280_humidity;BME280_pressure;Samples;Min_cycle;Max_cycle;Signal;HPM_P1;HPM_P2
2022/06/07 00:02:15;;;;;;;12.25;4.53;;;;;;;18.96;79.21;100010.03;5050627;28;20021;-28
2022/06/07 00:04:41;;;;;;;8.82;4.50;;;;;;;18.68;79.89;99999.53;5068628;28;20935;-32
2022/06/07 00:07:09;;;;;;;13.55;4.53;;;;;;;18.89;79.67;100009.53;5050303;28;20115;-28
2022/06/07 00:09:35;;;;;;;8.75;4.68;;;;;;;18.83;79.49;100014.94;5050105;28;20062;-30
2022/06/07 00:12:01;;;;;;;10.60;4.68;;;;;;;19.09;79.80;100031.06;5050378;28;20025;-31
2022/06/07 00:14:27;;;;;;;9.18;4.40;;;;;;;18.76;80.67;100011.69;5050381;28;20047;-28
2022/06/07 00:16:56;;;;;;;9.63;5.10;;;;;;;18.79;79.63;100027.38;5068221;28;20021;-29
2022/06/07 00:19:23;;;;;;;10.90;4.82;;;;;;;19.16;79.40;100028.88;5050240;28;20044;-30
2022/06/07 00:21:48;;;;;;;8.45;5.30;;;;;;;18.78;82.08;100024.94;5068079;28;20030;-30
2022/06/07 00:24:14;;;;;;;8.98;5.20;;;;;;;18.78;81.88;100024.94;5067780;28;20032;-32
2022/06/07 00:26:41;;;;;;;8.00;4.35;;;;;;;18.90;79.24;100030.88;5049895;28;20499;-29
2022/06/07 00:29:07;;;;;;;11.15;4.57;;;;;;;18.47;80.74;100025.78;5066419;28;20043;-32
2022/06/07 00:31:34;;;;;;;10.40;4.45;;;;;;;18.40;79.88;100014.44;5068011;28;20086;-28
2022/06/07 00:34:00;;;;;;;11.87;5.07;;;;;;;18.42;81.65;100020.38;5067832;28;20029;-30
2022/06/07 00:36:26;;;;;;;7.03;4.43;;;;;;;18.52;82.06;100038.47;5049561;28;20020;-30
2022/06/07 00:38:51;;;;;;;10.52;4.75;;;;;;;18.48;81.77;100016.59;5067491;28;20503;-30
2022/06/07 00:41:16;;;;;;;15.63;5.57;;;;;;;18.27;84.28;100037.41;5068278;28;20506;-35
2022/06/07 00:44:20;;;;;;;8.90;4.60;;;;;;;18.14;85.06;100034.44;5049703;28;20031;-29
2022/06/07 00:46:47;;;;;;;14.65;4.53;;;;;;;17.75;87.26;100035.72;5049163;28;20054;-32
2022/06/07 00:49:15;;;;;;;18.67;5.10;;;;;;;17.90;86.36;100024.19;5067099;28;20032;-29
2022/06/07 00:51:44;;;;;;;14.20;4.95;;;;;;;18.00;84.27;100026.06;5067663;28;20306;-30
2022/06/07 00:54:09;;;;;;;11.00;5.75;;;;;;;18.17;85.13;100037.41;5067706;28;20472;-30
2022/06/07 00:56:35;;;;;;;12.60;5.35;;;;;;;18.02;87.71;100035.53;5065999;28;20029;-30
2022/06/07 00:59:03;;;;;;;9.57;5.03;;;;;;;17.73;87.91;100042.47;5066834;28;20096;-30
2022/06/07 01:01:30;;;;;;;10.82;5.53;;;;;;;18.20;86.14;100041.47;5067292;28;20036;-29
2022/06/07 01:03:56;;;;;;;10.77;5.15;;;;;;;18.32;85.25;100027.69;5067580;28;20094;-32
2022/06/07 01:11:50;;;;;;;9.85;5.68;;;;;;;18.54;83.42;100032.81;5067310;28;20427;-31
2022/06/07 01:14:15;;;;;;;17.75;7.28;;;;;;;18.43;84.42;100024.72;5066529;28;20535;-30
2022/06/07 01:16:41;;;;;;;8.98;5.60;;;;;;;18.23;84.40;100009.34;5067268;28;20035;-31
2022/06/07 01:19:06;;;;;;;9.52;5.55;;;;;;;18.10;86.20;100033.34;5066939;28;20487;-29
2022/06/07 01:21:35;;;;;;;9.60;5.22;;;;;;;18.32;85.03;100025.78;5066956;28;20032;-30
2022/06/07 01:24:01;;;;;;;9.70;5.50;;;;;;;18.41;84.89;100024.19;5048875;28;20766;-28
2022/06/07 01:26:26;;;;;;;9.13;5.53;;;;;;;17.99;87.51;100029.84;5049049;28;20024;-31
2022/06/07 01:28:52;;;;;;;9.10;6.22;;;;;;;17.78;88.75;100034.41;5067201;28;20515;-31
2022/06/07 01:31:17;;;;;;;11.57;6.00;;;;;;;17.71;90.05;100036.53;5066826;28;20040;-32
2022/06/07 01:33:43;;;;;;;10.50;5.43;;;;;;;17.48;91.13;100033.22;5067037;28;20536;-31
2022/06/07 01:36:14;;;;;;;9.68;5.30;;;;;;;17.66;90.03;100030.03;5066753;28;20078;-31
2022/06/07 01:38:43;;;;;;;8.90;5.90;;;;;;;17.84;88.29;100027.97;5048847;28;20043;-29
2022/06/07 01:43:54;;;;;;;10.68;5.68;;;;;;;17.69;89.33;100015.22;5067101;28;20518;-31
2022/06/07 01:46:19;;;;;;;14.85;6.90;;;;;;;18.14;87.64;100020.94;5066688;28;20021;-30
2022/06/07 01:48:49;;;;;;;17.15;7.40;;;;;;;18.36;86.28;100018.78;5066664;28;20468;-29
2022/06/07 01:51:16;;;;;;;13.25;7.32;;;;;;;17.67;89.45;100007.41;5066189;28;20086;-29
2022/06/07 01:53:42;;;;;;;13.50;8.35;;;;;;;17.74;89.52;100022.53;5066962;28;20028;-29
2022/06/07 01:56:13;;;;;;;13.00;7.10;;;;;;;17.75;90.06;100016.84;5066689;28;20097;-29
2022/06/07 01:58:41;;;;;;;13.00;8.32;;;;;;;18.35;87.26;100036.06;5048481;28;20430;-31
2022/06/07 02:01:08;;;;;;;11.63;7.80;;;;;;;18.52;85.59;100038.47;5066645;28;20090;-32
2022/06/07 02:03:33;;;;;;;12.70;7.72;;;;;;;18.11;87.29;100022.31;5066829;28;20031;-30
2022/06/07 02:06:05;;;;;;;16.45;7.65;;;;;;;17.98;89.46;100044.41;5066702;28;20427;-31
2022/06/07 02:08:31;;;;;;;13.25;7.80;;;;;;;18.05;88.66;100034.97;5067173;28;20384;-28
2022/06/07 02:11:11;;;;;;;16.50;8.93;;;;;;;17.95;88.23;100028.78;5048565;28;20047;-29
2022/06/07 02:13:38;;;;;;;16.48;8.43;;;;;;;18.17;86.66;100025.81;5052818;28;20028;-29
2022/06/07 02:16:04;;;;;;;14.93;7.95;;;;;;;17.89;87.91;100024.44;5070591;28;20036;-28
2022/06/07 02:18:30;;;;;;;14.48;8.20;;;;;;;18.11;87.53;100037.69;5052175;28;20036;-29
2022/06/07 02:20:57;;;;;;;13.63;8.07;;;;;;;18.22;86.18;100040.09;5070189;28;20032;-30
2022/06/07 02:23:24;;;;;;;12.25;8.35;;;;;;;18.54;85.45;100046.31;5070646;28;20032;-29
2022/06/07 02:25:53;;;;;;;13.57;8.35;;;;;;;18.44;85.21;100037.13;5069993;28;20037;-32
2022/06/07 02:28:23;;;;;;;12.43;8.73;;;;;;;18.15;86.26;100022.59;5070311;28;20067;-32
2022/06/07 02:30:49;;;;;;;13.88;8.35;;;;;;;18.32;85.52;100023.09;5069877;28;20044;-28
2022/06/07 02:33:14;;;;;;;14.43;7.88;;;;;;;18.32;84.90;100023.09;5069872;28;20388;-31
2022/06/07 02:35:43;;;;;;;17.33;8.65;;;;;;;18.10;85.25;100031.47;5068423;28;20024;-28
2022/06/07 02:38:09;;;;;;;13.50;7.75;;;;;;;17.96;85.02;100028.50;5051890;28;20032;-29
2022/06/07 02:40:35;;;;;;;18.67;7.45;;;;;;;17.81;84.82;100023.84;5069665;28;20067;-29
2022/06/07 02:43:02;;;;;;;16.02;6.88;;;;;;;17.65;87.86;100038.38;5069906;28;20028;-32
2022/06/07 02:45:28;;;;;;;13.93;7.65;;;;;;;17.83;87.71;100042.50;5069693;28;20539;-29
2022/06/07 02:47:54;;;;;;;10.13;6.38;;;;;;;17.49;87.60;100032.19;5069322;28;20031;-29
2022/06/07 02:50:19;;;;;;;14.52;6.82;;;;;;;17.75;86.15;100030.31;5069604;28;20037;-30
2022/06/07 02:52:45;;;;;;;14.93;6.57;;;;;;;17.81;85.86;100031.16;5069743;28;20053;-32
2022/06/07 02:55:10;;;;;;;12.10;6.28;;;;;;;18.09;84.33;100053.34;5069507;28;20023;-30
2022/06/07 02:57:36;;;;;;;11.93;6.28;;;;;;;17.93;83.20;100039.03;5069592;28;20025;-30
2022/06/07 03:00:06;;;;;;;12.15;5.68;;;;;;;18.08;81.08;100044.41;5069570;28;20093;-29
2022/06/07 03:02:32;;;;;;;13.45;6.35;;;;;;;18.14;80.72;100027.16;5068996;28;20078;-29
2022/06/07 03:04:57;;;;;;;10.60;6.80;;;;;;;18.14;84.45;100058.72;5069840;28;20028;-28
2022/06/07 03:07:23;;;;;;;12.52;6.07;;;;;;;18.21;83.19;100059.28;5069616;28;20044;-33
2022/06/07 03:09:48;;;;;;;11.30;6.30;;;;;;;18.40;83.09;100054.94;5069362;28;20028;-29
2022/06/07 03:12:14;;;;;;;10.93;6.00;;;;;;;18.60;82.46;100056.81;5069431;28;20033;-31
2022/06/07 03:14:39;;;;;;;11.52;6.13;;;;;;;18.32;84.12;100060.09;5069015;28;20020;-29
2022/06/07 03:17:06;;;;;;;13.68;6.13;;;;;;;18.32;82.57;100039.28;5069063;28;20054;-32
2022/06/07 03:19:32;;;;;;;8.40;5.63;;;;;;;18.41;82.03;100064.69;5069298;28;20032;-29
2022/06/07 03:21:57;;;;;;;12.73;5.90;;;;;;;18.53;81.07;100044.69;5067424;28;20050;-29
2022/06/07 03:24:25;;;;;;;8.93;5.50;;;;;;;18.30;82.61;100044.16;5069217;28;20395;-29
2022/06/07 03:26:51;;;;;;;;;;;;;;;18.24;84.17;100069.53;5069633;28;20094;-32
2022/06/07 03:29:16;;;;;;;8.73;5.82;;;;;;;18.21;84.04;100059.28;5069058;28;19908;-31
2022/06/07 03:31:41;;;;;;;11.80;5.95;;;;;;;18.50;82.12;100053.34;5067361;28;20032;-31
2022/06/07 03:34:07;;;;;;;12.35;6.43;;;;;;;18.31;84.76;100070.09;5067463;28;20029;-28
2022/06/07 03:36:33;;;;;;;12.45;6.13;;;;;;;18.48;83.27;100070.59;5049906;28;20028;-28
2022/06/07 03:39:02;;;;;;;10.77;5.90;;;;;;;18.75;81.96;100069.50;5049030;28;20103;-32
2022/06/07 03:41:29;;;;;;;9.18;5.93;;;;;;;19.05;80.06;100051.63;5048793;28;20592;-33
2022/06/07 03:43:54;;;;;;;13.80;6.32;;;;;;;18.85;81.65;100072.19;5067359;28;20115;-29
2022/06/07 03:46:23;;;;;;;10.80;6.10;;;;;;;18.76;80.83;100076.53;5068696;28;20805;-30
2022/06/07 03:48:49;;;;;;;13.90;6.45;;;;;;;18.65;80.21;100061.41;5068449;28;20051;-30
2022/06/07 03:51:16;;;;;;;9.40;5.78;;;;;;;18.42;82.39;100054.69;5068400;28;20106;-30
2022/06/07 03:53:43;;;;;;;11.40;6.78;;;;;;;18.00;85.64;100059.28;5050580;28;20029;-28
2022/06/07 03:56:09;;;;;;;8.93;5.85;;;;;;;17.86;87.43;100079.75;5050248;28;20064;-28
2022/06/07 03:58:38;;;;;;;11.30;6.43;;;;;;;17.98;86.00;100074.91;5066779;28;20029;-31
2022/06/07 04:01:05;;;;;;;14.02;6.25;;;;;;;17.91;85.17;100074.34;5068428;28;20063;-30
2022/06/07 04:03:31;;;;;;;13.98;6.97;;;;;;;18.00;87.52;100080.84;5068525;28;20028;-29
2022/06/07 04:05:57;;;;;;;15.80;6.78;;;;;;;17.71;88.28;100072.38;5068213;28;20040;-29
2022/06/07 04:08:25;;;;;;;15.32;6.10;;;;;;;17.90;89.14;100086.25;5050306;28;20032;-29
2022/06/07 04:10:50;;;;;;;10.93;6.20;;;;;;;18.13;88.82;100090.31;5067685;28;20020;-28
2022/06/07 04:13:18;;;;;;;10.75;5.85;;;;;;;18.16;84.97;100075.47;5049990;28;20778;-28
2022/06/07 04:15:44;;;;;;;10.55;6.55;;;;;;;18.35;82.41;100091.94;5068072;28;20029;-29
2022/06/07 04:18:11;;;;;;;8.02;6.00;;;;;;;18.54;81.61;100084.91;5050264;28;20503;-29
2022/06/07 04:20:37;;;;;;;12.60;6.57;;;;;;;18.60;82.39;100083.84;5068012;28;20037;-30
2022/06/07 04:23:04;;;;;;;10.43;6.47;;;;;;;18.84;81.99;100088.72;5049952;28;20029;-29
2022/06/07 04:25:30;;;;;;;12.35;6.55;;;;;;;18.91;79.86;100083.81;5068076;28;20119;-28
2022/06/07 04:27:56;;;;;;;10.13;5.97;;;;;;;18.86;79.37;100071.13;5049749;28;20173;-31
2022/06/07 04:30:22;;;;;;;10.25;6.45;;;;;;;18.92;79.09;100061.13;5049758;28;20024;-30
2022/06/07 04:32:48;;;;;;;9.95;6.50;;;;;;;19.05;78.03;100071.34;5067595;28;20189;-31
2022/06/07 04:35:18;;;;;;;8.80;6.00;;;;;;;19.31;78.38;100071.28;5067279;28;20181;-29
2022/06/07 04:37:48;;;;;;;9.15;6.05;;;;;;;19.35;79.33;100087.72;5049573;28;20025;-29
2022/06/07 04:40:14;;;;;;;11.60;6.78;;;;;;;19.46;78.92;100073.88;5049200;28;20605;-29
2022/06/07 04:42:41;;;;;;;9.90;6.15;;;;;;;19.50;78.47;100084.97;5049506;28;20067;-30
2022/06/07 04:45:14;;;;;;;8.27;5.45;;;;;;;19.47;78.81;100075.53;5067501;28;20400;-30
2022/06/07 04:47:41;;;;;;;8.93;5.55;;;;;;;19.57;75.42;100082.75;5067647;28;20051;-29
2022/06/07 04:50:12;;;;;;;10.83;5.83;;;;;;;19.66;74.65;100078.41;5067456;28;20185;-32
2022/06/07 04:52:37;;;;;;;9.20;5.72;;;;;;;19.71;75.51;100093.00;5049006;28;20048;-29
2022/06/07 04:55:03;;;;;;;9.48;5.28;;;;;;;19.81;76.31;100084.84;5067023;28;20162;-35
2022/06/07 04:57:30;;;;;;;8.85;5.68;;;;;;;19.92;75.43;100099.09;5067494;28;20033;-35
2022/06/07 04:59:56;;;;;;;12.77;6.20;;;;;;;19.92;75.28;100099.09;5067240;28;20048;-28
2022/06/07 05:02:22;;;;;;;9.65;5.43;;;;;;;20.01;75.59;100103.66;5067551;28;20056;-30
2022/06/07 05:04:49;;;;;;;7.07;5.10;;;;;;;19.87;75.75;100089.13;5067043;28;20051;-30
2022/06/07 05:07:14;;;;;;;7.95;4.90;;;;;;;19.91;76.36;100092.09;5065498;28;20037;-31
2022/06/07 05:09:40;;;;;;;8.55;5.43;;;;;;;19.92;77.29;100091.00;5066944;28;20028;-30
2022/06/07 05:12:08;;;;;;;9.60;5.10;;;;;;;19.77;77.80;100081.88;5067390;28;20038;-29
2022/06/07 05:14:34;;;;;;;9.15;6.03;;;;;;;19.90;79.07;100099.41;5067203;28;20043;-29
2022/06/07 05:16:59;;;;;;;11.18;6.05;;;;;;;19.95;77.54;100102.06;5067321;28;20035;-29
2022/06/07 05:19:25;;;;;;;7.85;5.43;;;;;;;19.97;77.35;100089.06;5067251;28;20033;-32
2022/06/07 05:21:50;;;;;;;9.57;6.28;;;;;;;20.01;77.46;100090.13;5067024;28;20067;-31
2022/06/07 05:24:16;;;;;;;66.03;40.63;;;;;;;20.14;78.24;100088.66;5067475;28;20031;-31
2022/06/07 05:26:48;;;;;;;9.18;5.88;;;;;;;20.18;77.05;100099.75;5066976;28;20043;-29
2022/06/07 05:29:22;;;;;;;11.45;5.93;;;;;;;20.07;77.19;100091.69;5067230;28;20827;-30
2022/06/07 05:31:47;;;;;;;8.00;5.72;;;;;;;20.30;75.74;100086.66;5066989;28;20032;-29
2022/06/07 05:34:13;;;;;;;7.70;5.93;;;;;;;20.31;75.90;100101.00;5067105;28;20025;-33
2022/06/07 05:36:39;;;;;;;9.15;5.20;;;;;;;20.41;75.95;100109.88;5048350;28;20036;-32
2022/06/07 05:39:06;;;;;;;8.50;5.45;;;;;;;20.56;74.91;100103.50;5067160;28;20483;-30
2022/06/07 05:41:32;;;;;;;6.45;4.75;;;;;;;20.63;74.81;100105.91;5067246;28;20415;-34
2022/06/07 05:43:58;;;;;;;11.20;5.75;;;;;;;20.72;73.73;100100.69;5066970;28;20031;-34
2022/06/07 05:46:24;;;;;;;9.57;5.53;;;;;;;21.21;72.33;100114.00;5048654;28;20507;-30
2022/06/07 05:48:50;;;;;;;13.27;9.60;;;;;;;21.55;72.04;100115.78;5066555;28;20107;-29
2022/06/07 05:51:15;;;;;;;7.85;6.07;;;;;;;21.64;70.04;100097.78;5066265;28;20459;-29
2022/06/07 05:53:41;;;;;;;9.05;5.75;;;;;;;21.58;68.80;100098.94;5066737;28;20109;-29
2022/06/07 05:56:09;;;;;;;9.57;6.13;;;;;;;21.72;67.42;100109.06;5066813;28;20040;-29
2022/06/07 05:58:35;;;;;;;;;;;;;;;22.15;65.27;100122.56;5066803;28;20024;-31
2022/06/07 06:01:00;;;;;;;9.38;5.20;;;;;;;21.99;65.57;100108.44;5066610;28;19986;-29
2022/06/07 06:03:26;;;;;;;6.35;4.80;;;;;;;22.07;65.34;100116.72;5065028;28;20032;-29
2022/06/07 06:05:51;;;;;;;7.72;3.97;;;;;;;22.23;61.13;100119.19;5066142;28;20104;-31
2022/06/07 06:11:16;;;;;;;7.40;2.95;;;;;;;22.56;55.41;100116.53;5066515;28;20120;-29
2022/06/07 06:13:42;;;;;;;4.60;2.40;;;;;;;22.01;52.97;100106.22;5066359;28;20029;-31
2022/06/07 06:16:10;;;;;;;7.38;3.00;;;;;;;22.13;56.22;100103.03;5066263;28;20465;-29
2022/06/07 06:18:37;;;;;;;4.85;2.70;;;;;;;22.47;53.13;100097.38;5048110;28;20520;-30
2022/06/07 06:21:03;;;;;;;4.85;2.90;;;;;;;22.49;52.89;100105.22;5048410;28;20462;-35
2022/06/07 06:23:29;;;;;;;5.10;3.20;;;;;;;22.64;54.17;100097.63;5048268;28;20041;-32
2022/06/07 06:25:55;;;;;;;5.18;3.40;;;;;;;22.75;53.76;100103.69;5066428;28;20043;-34
2022/06/07 06:28:21;;;;;;;4.70;3.10;;;;;;;23.08;54.32;100106.38;5066466;28;20102;-29
2022/06/07 06:30:48;;;;;;;4.57;2.90;;;;;;;23.29;52.55;100095.88;5065738;28;20025;-28
2022/06/07 06:33:15;;;;;;;3.95;2.78;;;;;;;23.42;50.77;100105.19;5048492;28;20032;-29
2022/06/07 06:35:48;;;;;;;4.75;3.13;;;;;;;23.44;52.62;100100.22;5065055;28;20028;-31
2022/06/07 06:38:15;;;;;;;5.80;3.00;;;;;;;23.52;50.58;100094.06;5066212;28;20075;-29
2022/06/07 06:40:40;;;;;;;3.67;2.90;;;;;;;23.77;51.56;100108.28;5047664;28;20424;-32
2022/06/07 06:43:05;;;;;;;5.28;2.70;;;;;;;23.40;49.64;100107.38;5066115;28;20025;-32
2022/06/07 06:45:31;;;;;;;3.75;2.40;;;;;;;23.54;50.32;100112.78;5065832;28;20067;-31
2022/06/07 06:47:56;;;;;;;4.18;2.55;;;;;;;23.55;48.20;100109.78;5066245;28;20024;-29
2022/06/07 06:50:22;;;;;;;6.25;3.00;;;;;;;23.48;53.58;100109.41;5066010;28;20480;-31
2022/06/07 06:52:47;;;;;;;6.20;3.85;;;;;;;23.74;52.13;100106.94;5065619;28;20491;-29
2022/06/07 06:55:13;;;;;;;12.20;9.75;;;;;;;23.77;50.75;100097.38;5066243;28;20032;-29
2022/06/07 06:57:39;;;;;;;7.15;4.15;;;;;;;23.85;48.66;100099.38;5066943;28;20032;-30
2022/06/07 07:00:05;;;;;;;8.60;6.10;;;;;;;24.01;47.85;100089.75;5069565;28;20032;-30
2022/06/07 07:02:31;;;;;;;5.78;2.55;;;;;;;24.13;47.05;100082.91;5051343;28;20031;-35
2022/06/07 07:04:56;;;;;;;6.03;2.70;;;;;;;24.26;48.18;100084.78;5069636;28;20021;-31
2022/06/07 07:07:22;;;;;;;7.18;4.03;;;;;;;24.59;51.00;100098.19;5069305;28;20037;-28
2022/06/07 07:09:49;;;;;;;8.40;6.28;;;;;;;24.75;48.54;100085.75;5051532;28;20025;-31
2022/06/07 07:12:16;;;;;;;9.88;7.10;;;;;;;24.52;49.71;100087.72;5069384;28;20492;-34
2022/06/07 07:14:41;;;;;;;9.25;4.15;;;;;;;24.69;47.05;100100.63;5050767;28;20522;-29
2022/06/07 07:17:07;;;;;;;5.80;3.45;;;;;;;24.74;49.06;100105.16;5051347;28;20032;-33
2022/06/07 07:19:32;;;;;;;5.72;4.03;;;;;;;25.06;47.91;100095.84;5069012;28;20025;-30
2022/06/07 07:21:58;;;;;;;4.85;2.60;;;;;;;24.76;45.92;100081.88;5069303;28;20028;-34
2022/06/07 07:24:24;;;;;;;3.30;2.50;;;;;;;24.78;46.88;100098.75;5068939;28;20032;-29
2022/06/07 07:26:51;;;;;;;5.05;2.50;;;;;;;25.06;46.60;100102.09;5050464;28;20124;-30
2022/06/07 07:29:19;;;;;;;5.20;2.75;;;;;;;25.38;46.56;100088.44;5050520;28;20721;-31
2022/06/07 07:31:44;;;;;;;5.90;3.58;;;;;;;25.02;48.80;100073.03;5050869;28;20040;-30
2022/06/07 07:34:14;;;;;;;4.90;2.95;;;;;;;24.98;49.00;100063.88;5068899;28;20021;-36
2022/06/07 07:36:44;;;;;;;4.88;2.78;;;;;;;25.00;49.40;100070.59;5068409;28;20044;-32
2022/06/07 07:39:10;;;;;;;3.65;2.60;;;;;;;25.04;46.88;100071.59;5050464;28;20028;-36
2022/06/07 07:41:37;;;;;;;3.65;2.33;;;;;;;25.20;48.30;100073.91;5067890;28;20032;-29
2022/06/07 07:44:05;;;;;;;4.22;2.20;;;;;;;25.84;45.20;100071.44;5050706;28;20111;-29
2022/06/07 07:46:34;;;;;;;3.22;2.80;;;;;;;25.83;41.48;100069.03;5050312;28;20032;-30
2022/06/07 07:49:01;;;;;;;4.45;2.50;;;;;;;25.69;42.96;100060.22;5050046;28;20086;-32
2022/06/07 07:51:31;;;;;;;2.63;2.20;;;;;;;25.72;43.32;100051.34;5050061;28;20060;-38
2022/06/07 07:53:59;;;;;;;3.88;2.35;;;;;;;26.22;41.64;100065.34;5050359;28;20032;-32
2022/06/07 07:56:25;;;;;;;3.13;1.92;;;;;;;26.32;43.97;100060.69;5050399;28;20025;-31
2022/06/07 07:58:52;;;;;;;5.20;2.25;;;;;;;26.15;41.71;100056.03;5050066;28;20033;-34
2022/06/07 08:01:21;;;;;;;3.30;2.40;;;;;;;26.48;40.62;100066.41;5050072;28;20411;-32
2022/06/07 08:03:48;;;;;;;3.55;2.00;;;;;;;26.61;40.22;100057.25;5068267;28;20035;-33
2022/06/07 08:06:17;;;;;;;4.10;2.47;;;;;;;26.50;40.27;100053.22;5050067;28;20020;-31
2022/06/07 08:08:43;;;;;;;4.60;2.42;;;;;;;26.15;42.78;100036.88;5067738;28;20036;-32
2022/06/07 08:11:09;;;;;;;4.05;2.35;;;;;;;26.61;41.30;100059.97;5050360;28;20063;-31
2022/06/07 08:13:36;;;;;;;2.92;2.10;;;;;;;26.68;43.02;100043.84;5068028;28;20111;-31
2022/06/07 08:16:04;;;;;;;3.58;2.17;;;;;;;26.80;39.55;100035.75;5050041;28;20102;-32
2022/06/07 08:18:29;;;;;;;4.22;2.33;;;;;;;26.85;41.55;100045.75;5049442;28;20031;-31
2022/06/07 08:21:00;;;;;;;3.85;2.30;;;;;;;26.86;38.26;100039.91;5067605;28;20036;-30
2022/06/07 08:23:28;;;;;;;4.30;2.17;;;;;;;26.71;38.82;100012.31;5049471;28;20039;-32
2022/06/07 08:25:58;;;;;;;3.03;2.30;;;;;;;26.76;40.69;100029.34;5049773;28;20032;-31
2022/06/07 08:28:24;;;;;;;2.58;2.03;;;;;;;26.68;40.26;100027.44;5049638;28;20021;-29
2022/06/07 08:30:50;;;;;;;4.55;2.20;;;;;;;26.86;40.59;100028.19;5065977;28;20036;-29
2022/06/07 08:38:45;;;;;;;3.67;2.45;;;;;;;26.46;41.94;100021.06;5067320;28;20027;-29
2022/06/07 08:41:24;;;;;;;4.30;2.10;;;;;;;26.71;39.22;100020.53;5067664;28;20032;-29
2022/06/07 08:43:50;;;;;;;4.15;2.17;;;;;;;26.96;39.79;100021.53;5067401;28;20029;-28
2022/06/07 08:46:19;;;;;;;7.45;2.67;;;;;;;26.85;41.11;100021.91;5066009;28;20094;-28
2022/06/07 08:48:45;;;;;;;3.85;2.50;;;;;;;26.83;39.79;100013.22;5049136;28;20112;-29
2022/06/07 08:51:24;;;;;;;7.32;2.80;;;;;;;27.22;40.19;100005.75;5049039;28;20135;-34
2022/06/07 08:53:53;;;;;;;3.28;1.92;;;;;;;27.42;39.75;99992.44;5067296;28;20527;-32
2022/06/07 08:56:27;;;;;;;4.25;2.00;;;;;;;27.47;38.27;100003.19;5049151;28;20113;-30
2022/06/07 08:58:56;;;;;;;3.85;1.98;;;;;;;27.18;37.88;100007.56;5048881;28;20119;-29
2022/06/07 09:01:53;;;;;;;4.07;2.13;;;;;;;26.92;37.40;99999.50;5049325;28;20031;-29
2022/06/07 09:04:22;;;;;;;2.60;1.95;;;;;;;27.39;37.98;100006.81;5049002;28;20033;-32
2022/06/07 09:06:51;;;;;;;3.58;1.90;;;;;;;27.52;37.60;99988.50;5067294;28;20028;-33
2022/06/07 09:09:21;;;;;;;2.17;1.90;;;;;;;28.03;37.02;99994.66;5067024;28;20440;-35
2022/06/07 09:12:09;;;;;;;3.28;2.00;;;;;;;28.42;38.09;99990.53;5049123;28;20035;-30
2022/06/07 09:14:48;;;;;;;3.58;2.03;;;;;;;28.51;35.47;99997.88;5067116;28;20028;-29
2022/06/07 09:17:21;;;;;;;4.25;2.13;;;;;;;28.25;37.29;99997.00;5048985;28;20032;-31
2022/06/07 09:19:49;;;;;;;2.80;2.03;;;;;;;28.69;36.82;99999.28;5048520;28;20505;-29
2022/06/07 09:22:20;;;;;;;;;;;;;;;28.87;38.22;99993.53;5049315;28;20048;-32
2022/06/07 09:25:04;;;;;;;3.00;2.05;;;;;;;28.31;36.51;99972.13;5066625;28;19920;-30
2022/06/07 09:27:32;;;;;;;3.25;2.03;;;;;;;28.00;37.63;99979.69;5066683;28;20047;-29
2022/06/07 09:30:24;;;;;;;2.90;2.10;;;;;;;28.51;37.02;99984.97;5066502;28;20028;-31
2022/06/07 09:32:51;;;;;;;5.85;2.83;;;;;;;28.83;34.46;99968.72;5039909;28;20043;-29
2022/06/07 09:35:35;;;;;;;4.35;2.20;;;;;;;28.22;36.15;99980.44;5066367;28;20033;-30
2022/06/07 09:38:05;;;;;;;4.35;2.33;;;;;;;27.42;37.87;99962.31;5065258;28;20588;-29
2022/06/07 09:40:42;;;;;;;2.88;1.95;;;;;;;27.28;36.52;99959.03;5031468;28;20024;-29
2022/06/07 09:43:17;;;;;;;4.38;2.13;;;;;;;27.51;36.41;99976.75;5048552;28;20063;-33
2022/06/07 09:45:46;;;;;;;3.05;2.15;;;;;;;27.62;37.34;99967.00;5066590;28;20103;-29
2022/06/07 09:48:29;;;;;;;3.72;2.10;;;;;;;27.90;37.16;99952.72;5066859;28;20021;-29
2022/06/07 09:51:02;;;;;;;3.65;2.08;;;;;;;28.74;38.66;99957.88;5047798;28;20534;-33
2022/06/07 09:53:41;;;;;;;4.68;2.90;;;;;;;29.12;35.61;99937.50;5048404;28;20040;-31
2022/06/07 09:56:16;;;;;;;6.22;2.22;;;;;;;29.33;36.45;99944.75;5066551;28;20020;-29
2022/06/07 09:59:03;;;;;;;3.97;2.08;;;;;;;29.23;34.80;99955.06;5048292;28;20127;-28
2022/06/07 10:01:38;;;;;;;2.65;1.90;;;;;;;29.69;33.46;99937.50;5066608;28;20032;-31
2022/06/07 10:04:26;;;;;;;4.22;2.08;;;;;;;30.02;33.69;99940.78;5066740;28;20032;-34
2022/06/07 10:07:02;;;;;;;2.47;1.90;;;;;;;29.10;34.83;99937.00;5053385;28;20496;-29
2022/06/07 10:09:30;;;;;;;3.65;2.00;;;;;;;29.39;34.87;99935.13;5048180;28;20714;-28
2022/06/07 10:12:15;;;;;;;3.47;1.90;;;;;;;29.20;33.61;99938.50;5066375;28;20033;-29
2022/06/07 10:14:47;;;;;;;3.10;1.85;;;;;;;29.67;33.84;99934.31;5031311;28;20052;-32
2022/06/07 10:17:15;;;;;;;3.20;2.00;;;;;;;29.38;35.32;99926.09;5048303;28;20119;-30
2022/06/07 10:20:10;;;;;;;3.38;2.17;;;;;;;29.28;37.27;99928.50;5066100;28;20029;-29
2022/06/07 10:22:45;;;;;;;2.72;1.92;;;;;;;28.93;35.78;99907.06;5048018;28;20056;-36
2022/06/07 10:25:16;;;;;;;2.90;2.00;;;;;;;29.30;35.22;99913.31;5048007;28;20032;-31
2022/06/07 10:27:50;;;;;;;3.35;2.15;;;;;;;29.36;35.45;99909.16;5047852;28;20044;-29
2022/06/07 10:30:19;;;;;;;3.58;2.05;;;;;;;29.02;36.68;99922.25;5047608;28;20075;-32
2022/06/07 10:33:08;;;;;;;2.75;1.92;;;;;;;28.17;35.57;99903.88;5066973;28;20504;-28
2022/06/07 10:35:55;;;;;;;2.45;1.80;;;;;;;28.31;36.93;99918.06;5051980;28;20060;-32
2022/06/07 10:38:37;;;;;;;5.47;2.30;;;;;;;27.70;39.32;99901.47;5051757;28;20878;-29
2022/06/07 10:42:04;;;;;;;3.55;1.98;;;;;;;28.77;37.63;99891.34;5068832;28;20033;-32
2022/06/07 10:44:45;;;;;;;4.75;1.90;;;;;;;29.36;35.59;99891.84;5032535;28;20064;-29
2022/06/07 10:47:14;;;;;;;2.13;1.92;;;;;;;29.43;35.69;99889.31;5051482;28;20565;-34
2022/06/07 10:49:39;;;;;;;2.40;2.00;;;;;;;29.67;34.75;99890.34;5069380;28;20059;-30
2022/06/07 10:52:21;;;;;;;2.92;1.80;;;;;;;29.93;33.45;99881.63;5069491;28;20508;-30
2022/06/07 10:54:59;;;;;;;2.92;1.85;;;;;;;30.58;34.38;99884.78;5069334;28;20914;-30
2022/06/07 10:57:39;;;;;;;3.13;2.10;;;;;;;29.97;34.34;99883.31;5051304;28;20557;-30
2022/06/07 11:00:34;;;;;;;2.72;1.70;;;;;;;28.90;34.65;99880.31;5069427;28;20059;-32
2022/06/07 11:03:17;;;;;;;2.42;2.00;;;;;;;28.23;37.10;99875.88;5051195;28;20036;-32
2022/06/07 11:11:23;;;;;;;3.20;2.10;;;;;;;27.79;37.94;99861.91;5069136;28;20063;-29
2022/06/07 11:13:57;;;;;;;5.57;1.88;;;;;;;27.62;38.71;99870.28;5050813;28;20547;-28
2022/06/07 11:16:27;;;;;;;2.75;2.20;;;;;;;27.57;38.56;99865.03;5050727;28;20037;-32
2022/06/07 11:18:53;;;;;;;3.40;1.98;;;;;;;27.25;39.33;99860.00;5068918;28;20032;-28
2022/06/07 11:21:26;;;;;;;4.00;2.15;;;;;;;27.26;38.87;99863.56;5069109;28;20042;-28
2022/06/07 11:24:26;;;;;;;2.88;2.10;;;;;;;27.22;38.68;99860.66;5069269;28;20055;-31
2022/06/07 11:26:51;;;;;;;4.57;2.17;;;;;;;27.22;40.35;99854.41;5050945;28;20032;-30
2022/06/07 11:29:25;;;;;;;3.65;2.08;;;;;;;27.15;39.98;99849.44;5068936;28;20089;-28
2022/06/07 11:31:51;;;;;;;4.22;2.15;;;;;;;26.71;40.78;99832.59;5050571;28;20042;-30
2022/06/07 11:34:29;;;;;;;3.55;2.30;;;;;;;26.62;39.91;99838.13;5068959;28;20040;-28
2022/06/07 11:37:21;;;;;;;5.05;2.20;;;;;;;26.69;40.78;99842.25;5050497;28;20786;-30
2022/06/07 11:39:55;;;;;;;3.85;2.42;;;;;;;26.66;40.73;99849.19;5068551;28;20040;-29
2022/06/07 11:42:28;;;;;;;2.47;2.13;;;;;;;26.68;41.52;99848.84;5068685;28;20028;-35
2022/06/07 11:45:16;;;;;;;3.17;2.20;;;;;;;26.71;42.20;99840.78;5068656;28;20036;-28
2022/06/07 11:48:04;;;;;;;2.95;2.15;;;;;;;26.46;43.40;99818.72;5068575;28;20028;-30
2022/06/07 11:50:41;;;;;;;3.60;2.67;;;;;;;26.68;40.11;99835.97;5067875;28;20036;-29
2022/06/07 11:53:24;;;;;;;3.15;2.15;;;;;;;26.80;40.62;99825.09;5050355;28;20205;-30
2022/06/07 11:55:55;;;;;;;3.50;2.10;;;;;;;27.00;39.99;99831.72;5050042;28;20037;-31
2022/06/07 11:59:10;;;;;;;6.55;2.40;;;;;;;27.06;38.72;99824.09;5050436;28;20408;-30